Time;durP1;ratioP1;P1;durP2;ratioP2;P2;SDS_P1;SDS_P2;PMS_P1;PMS_P2;Temp;Humidity;BMP_temperature;BMP_pressure;BME280_temperature;BME280_humidity;BME280_pressure;Samples;Min_cycle;Max_cycle;Signal;HPM_P1;HPM_P2
2023/12/17 00:01:21;;;;;;;3.10;2.05;;;;;;;6.91;60.75;103196.84;5088689;28;20059;-87
2023/12/17 00:04:16;;;;;;;3.53;2.28;;;;;;;6.74;60.85;103177.78;5084082;28;20402;-87
2023/12/17 00:07:08;;;;;;;6.15;2.97;;;;;;;6.72;60.96;103179.88;5088227;28;20425;-87
2023/12/17 00:10:02;;;;;;;4.30;2.78;;;;;;;6.82;61.48;103172.03;5083493;28;20048;-88
2023/12/17 00:12:57;;;;;;;6.47;3.15;;;;;;;6.89;61.25;103174.66;5087043;28;20043;-88
2023/12/17 00:15:46;;;;;;;3.93;2.40;;;;;;;6.96;60.81;103174.56;5085701;28;20040;-88
2023/12/17 00:18:38;;;;;;;7.15;2.40;;;;;;;6.78;60.91;103172.72;5088374;28;20054;-88
2023/12/17 00:21:33;;;;;;;5.18;3.03;;;;;;;7.01;60.64;103159.25;5086739;28;20048;-87
2023/12/17 00:24:28;;;;;;;4.20;2.27;;;;;;;7.05;61.17;103154.22;5082594;28;20048;-87
2023/12/17 00:27:27;;;;;;;4.00;1.70;;;;;;;6.92;60.69;103160.66;5088537;28;20055;-87
2023/12/17 00:30:22;;;;;;;7.43;3.78;;;;;;;6.85;60.91;103166.19;5086980;28;20707;-87
2023/12/17 00:33:17;;;;;;;6.33;2.97;;;;;;;6.79;60.33;103167.09;5085629;28;20039;-88
2023/12/17 00:36:12;;;;;;;4.80;2.90;;;;;;;6.85;60.81;103158.06;5087124;28;20043;-87
2023/12/17 00:39:04;;;;;;;;;;;;;;;6.60;60.82;103164.66;5087714;28;20043;-87
2023/12/17 00:41:57;;;;;;;4.63;2.78;;;;;;;6.42;60.69;103166.31;5086261;28;19913;-87
2023/12/17 00:44:51;;;;;;;5.20;3.00;;;;;;;6.49;61.68;103171.66;5080556;28;20044;-87
2023/12/17 00:47:43;;;;;;;2.55;2.20;;;;;;;6.56;61.66;103171.56;5086996;28;20048;-86
2023/12/17 00:50:35;;;;;;;6.97;2.95;;;;;;;6.48;61.04;103170.00;5079745;28;20433;-87
2023/12/17 00:53:29;;;;;;;5.80;2.75;;;;;;;6.53;61.42;103155.81;5084252;28;20047;-87
2023/12/17 00:56:24;;;;;;;5.50;2.55;;;;;;;6.48;61.64;103145.69;5086760;28;20043;-87
2023/12/17 00:59:24;;;;;;;3.92;2.05;;;;;;;6.48;61.33;103142.97;5085999;28;20051;-87
2023/12/17 01:02:18;;;;;;;3.70;2.65;;;;;;;6.53;60.92;103155.81;5086145;28;20421;-87
2023/12/17 01:05:10;;;;;;;4.13;2.70;;;;;;;6.49;61.22;103160.84;5086425;28;20039;-88
2023/12/17 01:08:02;;;;;;;3.38;2.33;;;;;;;6.71;60.94;103155.75;5086275;28;20417;-87
2023/12/17 01:10:57;;;;;;;5.68;2.63;;;;;;;6.53;61.62;103153.94;5081218;28;20043;-87
2023/12/17 01:13:51;;;;;;;6.55;3.15;;;;;;;6.59;61.08;103163.84;5083637;28;20047;-87
2023/12/17 01:16:46;;;;;;;2.80;1.88;;;;;;;6.61;61.07;103158.19;5086579;28;20039;-87
2023/12/17 01:19:41;;;;;;;3.40;3.00;;;;;;;6.65;61.92;103167.50;5085711;28;20040;-87
2023/12/17 01:22:33;;;;;;;4.80;2.58;;;;;;;6.67;61.02;103163.50;5086450;28;20270;-87
2023/12/17 01:25:25;;;;;;;8.05;3.10;;;;;;;6.64;61.33;103161.28;5080537;28;20051;-87
2023/12/17 01:28:17;;;;;;;3.65;2.78;;;;;;;6.57;60.71;103147.00;5088182;28;20055;-87
2023/12/17 01:31:12;;;;;;;5.55;2.70;;;;;;;6.62;61.35;103141.75;5096336;28;20416;-87
2023/12/17 01:34:06;;;;;;;3.43;2.03;;;;;;;6.70;60.40;103144.13;5091612;28;20051;-86
2023/12/17 01:37:01;;;;;;;4.53;2.45;;;;;;;6.66;60.13;103145.63;5096623;28;20027;-87
2023/12/17 01:39:53;;;;;;;2.50;2.00;;;;;;;6.52;60.43;103144.16;5093618;28;20043;-87
2023/12/17 01:42:47;;;;;;;4.05;2.38;;;;;;;6.26;60.61;103142.63;5085466;28;20043;-87
2023/12/17 01:45:42;;;;;;;6.80;3.00;;;;;;;6.37;61.81;103136.47;5085941;28;20052;-87
2023/12/17 01:48:37;;;;;;;6.43;2.33;;;;;;;6.56;60.30;103142.66;5080042;28;20544;-87
2023/12/17 01:51:31;;;;;;;4.20;1.90;;;;;;;6.58;59.85;103158.66;5086189;28;20274;-87
2023/12/17 01:54:24;;;;;;;6.68;2.58;;;;;;;6.30;60.67;103167.31;5079364;28;20126;-87
2023/12/17 01:57:18;;;;;;;5.25;2.83;;;;;;;6.52;60.33;103149.56;5078432;28;20060;-87
2023/12/17 02:00:09;;;;;;;3.90;2.47;;;;;;;6.40;60.65;103146.81;5086516;28;20052;-87
2023/12/17 02:03:05;;;;;;;8.55;2.75;;;;;;;6.53;60.38;103142.28;5084569;28;20048;-88
2023/12/17 02:06:00;;;;;;;7.40;2.70;;;;;;;6.39;60.77;103130.84;5084561;28;20047;-86
2023/12/17 02:08:52;;;;;;;7.53;2.33;;;;;;;6.66;60.10;103139.38;5084537;28;20051;-86
2023/12/17 02:11:44;;;;;;;4.22;2.67;;;;;;;6.55;59.26;103135.63;5077202;28;20051;-87
2023/12/17 02:14:36;;;;;;;5.72;2.90;;;;;;;6.32;59.39;103121.97;5078288;28;20051;-87
2023/12/17 02:17:32;;;;;;;6.45;3.00;;;;;;;5.85;60.36;103121.66;5084447;28;20043;-86
2023/12/17 02:20:26;;;;;;;4.57;3.03;;;;;;;5.98;60.16;103108.06;5082845;28;20047;-87
2023/12/17 02:23:21;;;;;;;4.60;2.95;;;;;;;6.12;60.30;103107.91;5083252;28;20063;-87
2023/12/17 02:26:15;;;;;;;5.28;2.60;;;;;;;6.30;60.08;103115.97;5084524;28;20401;-86
2023/12/17 02:29:10;;;;;;;7.85;3.33;;;;;;;6.40;59.52;103111.66;5085369;28;20039;-87
2023/12/17 02:32:02;;;;;;;3.63;2.33;;;;;;;6.39;59.34;103111.91;5085431;28;20063;-87
2023/12/17 02:34:57;;;;;;;4.00;2.50;;;;;;;6.43;60.06;103111.22;5079035;28;20044;-87
2023/12/17 02:37:52;;;;;;;7.57;4.35;;;;;;;6.10;60.73;103110.81;5085899;28;20044;-87
2023/12/17 02:40:46;;;;;;;4.05;2.40;;;;;;;5.63;61.71;103112.38;5085218;28;20039;-87
2023/12/17 02:43:38;;;;;;;6.60;2.60;;;;;;;5.95;61.02;103113.91;5082436;28;20047;-86
2023/12/17 02:46:30;;;;;;;4.05;2.33;;;;;;;5.91;61.02;103112.72;5080772;28;20052;-86
2023/12/17 02:49:31;;;;;;;3.88;2.28;;;;;;;5.91;60.68;103091.09;5085565;28;20052;-87
2023/12/17 02:52:26;;;;;;;7.15;3.33;;;;;;;6.01;60.64;103090.56;5085438;28;20397;-87
2023/12/17 02:55:20;;;;;;;6.57;2.30;;;;;;;5.90;61.11;103092.16;5078959;28;20043;-87
2023/12/17 02:58:15;;;;;;;3.70;2.30;;;;;;;5.98;59.78;103091.03;5085773;28;20059;-88
2023/12/17 03:01:10;;;;;;;7.88;3.08;;;;;;;6.19;59.30;103095.97;5080724;28;20055;-87
2023/12/17 03:04:04;;;;;;;5.07;2.78;;;;;;;5.68;60.26;103103.59;5085554;28;20047;-87
2023/12/17 03:06:56;;;;;;;7.63;3.55;;;;;;;5.55;61.22;103086.47;5089385;28;20047;-87
2023/12/17 03:09:49;;;;;;;3.88;2.35;;;;;;;5.85;60.65;103075.75;5087607;28;20059;-87
2023/12/17 03:12:44;;;;;;;5.35;3.00;;;;;;;5.96;59.60;103066.94;5089281;28;20051;-88
2023/12/17 03:15:38;;;;;;;2.08;1.40;;;;;;;5.54;60.06;103078.59;5084535;28;20071;-88
2023/12/17 03:18:33;;;;;;;7.72;2.97;;;;;;;5.91;59.73;103068.69;5089230;28;20516;-87
2023/12/17 03:21:23;;;;;;;4.70;1.85;;;;;;;6.01;59.22;103071.66;5088929;28;20043;-87
2023/12/17 03:24:17;;;;;;;5.88;2.83;;;;;;;6.22;58.49;103073.88;5069544;28;20043;-87
2023/12/17 03:27:09;;;;;;;4.45;3.38;;;;;;;6.19;58.41;103065.44;5088766;28;20059;-86
2023/12/17 03:30:04;;;;;;;9.38;3.60;;;;;;;6.13;58.86;103058.22;5084382;28;20047;-86
2023/12/17 03:32:59;;;;;;;4.45;1.80;;;;;;;5.59;60.03;103070.66;5087872;28;20044;-86
2023/12/17 03:35:52;;;;;;;3.33;1.77;;;;;;;5.54;60.43;103065.09;5089242;28;20047;-86
2023/12/17 03:38:47;;;;;;;3.90;2.45;;;;;;;5.70;60.45;103067.22;5088088;28;20051;-88
2023/12/17 03:41:41;;;;;;;3.70;1.45;;;;;;;5.77;59.00;103075.25;5088516;28;20119;-87
2023/12/17 03:44:36;;;;;;;5.57;2.58;;;;;;;5.44;59.20;103083.69;5082661;28;20052;-87
2023/12/17 03:47:28;;;;;;;5.47;2.80;;;;;;;5.58;60.07;103086.06;5088110;28;20417;-87
2023/12/17 03:50:23;;;;;;;3.72;2.17;;;;;;;5.83;58.77;103096.78;5088063;28;20504;-87
2023/12/17 03:53:18;;;;;;;;;;;;;;;5.94;58.02;103101.44;5085110;28;20055;-88
2023/12/17 03:56:16;;;;;;;3.58;2.50;;;;;;;6.13;58.62;103104.97;5086650;28;19912;-87
2023/12/17 03:59:04;;;;;;;4.25;1.92;;;;;;;6.15;58.83;103097.44;5087172;28;20055;-87
2023/12/17 04:01:57;;;;;;;4.43;2.83;;;;;;;5.62;59.83;103085.59;5088225;28;20330;-87
2023/12/17 04:04:51;;;;;;;5.03;2.55;;;;;;;5.15;61.60;103088.72;5081850;28;20055;-87
2023/12/17 04:07:46;;;;;;;6.32;2.67;;;;;;;4.85;60.76;103097.69;5087825;28;20047;-86
2023/12/17 04:10:40;;;;;;;3.22;2.22;;;;;;;4.84;61.07;103091.47;5083332;28;20047;-88
2023/12/17 04:13:32;;;;;;;5.05;3.17;;;;;;;5.02;61.83;103096.13;5085236;28;20418;-87
2023/12/17 04:16:24;;;;;;;3.97;2.60;;;;;;;5.33;61.53;103090.66;5088635;28;20043;-87
2023/12/17 04:19:19;;;;;;;6.30;3.67;;;;;;;5.46;60.85;103087.00;5087956;28;20052;-87
2023/12/17 04:22:14;;;;;;;8.35;2.78;;;;;;;5.50;60.80;103094.41;5084164;28;20047;-87
2023/12/17 04:25:09;;;;;;;6.38;2.78;;;;;;;5.56;60.38;103106.19;5088103;28;20047;-87
2023/12/17 04:28:01;;;;;;;3.22;2.25;;;;;;;5.57;59.16;103103.28;5084455;28;20056;-86
2023/12/17 04:30:53;;;;;;;3.03;2.58;;;;;;;4.90;62.26;103100.56;5082058;28;20048;-87
2023/12/17 04:33:48;;;;;;;5.43;2.92;;;;;;;5.33;62.16;103104.16;5083785;28;20051;-87
2023/12/17 04:36:37;;;;;;;5.03;3.10;;;;;;;5.48;61.33;103101.09;5086878;28;20040;-86
2023/12/17 04:39:32;;;;;;;5.38;3.25;;;;;;;5.67;60.25;103104.66;5081513;28;20063;-86
2023/12/17 04:42:26;;;;;;;5.57;2.95;;;;;;;5.61;59.73;103100.97;5087026;28;20043;-87
2023/12/17 04:45:21;;;;;;;3.25;1.90;;;;;;;5.53;59.71;103099.38;5087085;28;20055;-87
2023/12/17 04:48:15;;;;;;;3.63;2.50;;;;;;;5.07;61.60;103096.28;5086462;28;20047;-88
2023/12/17 04:51:15;;;;;;;5.33;2.10;;;;;;;4.88;61.24;103099.94;5087478;28;20061;-87
2023/12/17 04:54:10;;;;;;;6.57;2.85;;;;;;;5.02;60.74;103107.72;5082940;28;20047;-87
2023/12/17 04:57:04;;;;;;;8.85;2.92;;;;;;;4.87;60.45;103107.22;5087360;28;20417;-87
2023/12/17 04:59:56;;;;;;;4.82;2.35;;;;;;;5.18;60.88;103114.44;5087316;28;20047;-87
2023/12/17 05:02:49;;;;;;;5.25;3.22;;;;;;;5.39;60.47;103107.81;5086360;28;20118;-87
2023/12/17 05:05:44;;;;;;;5.80;2.85;;;;;;;5.48;60.30;103103.81;5084855;28;20040;-87
2023/12/17 05:08:36;;;;;;;5.75;2.67;;;;;;;5.10;60.28;103103.91;5081580;28;20055;-89
2023/12/17 05:11:31;;;;;;;8.43;2.95;;;;;;;3.83;64.57;103106.69;5062605;28;20044;-88
2023/12/17 05:14:23;;;;;;;3.92;2.63;;;;;;;4.61;62.90;103110.09;5064581;28;20052;-88
2023/12/17 05:17:15;;;;;;;6.47;3.72;;;;;;;4.53;61.98;103099.53;5069755;28;20040;-88
2023/12/17 05:20:10;;;;;;;7.75;4.60;;;;;;;4.76;61.95;103096.31;5063785;28;20418;-87
2023/12/17 05:23:02;;;;;;;;;;;;;;;4.99;61.14;103110.84;5061348;28;20528;-87
2023/12/17 05:25:57;;;;;;;4.90;3.10;;;;;;;4.93;61.81;103109.03;5064429;28;19917;-87
2023/12/17 05:28:52;;;;;;;6.90;3.60;;;;;;;4.68;61.74;103114.38;5063020;28;20048;-87
2023/12/17 05:31:46;;;;;;;4.88;3.00;;;;;;;3.93;64.37;103107.06;5059922;28;20052;-87
2023/12/17 05:34:38;;;;;;;5.03;2.83;;;;;;;3.99;66.41;103108.09;5060928;28;20048;-87
2023/12/17 05:37:33;;;;;;;7.13;3.78;;;;;;;4.55;64.53;103110.94;5068039;28;20108;-88
2023/12/17 05:40:28;;;;;;;4.60;2.50;;;;;;;5.00;62.83;103107.13;5066549;28;20040;-87
2023/12/17 05:43:22;;;;;;;6.68;2.97;;;;;;;5.08;60.72;103111.38;5063154;28;20048;-87
2023/12/17 05:46:17;;;;;;;4.53;2.78;;;;;;;4.62;62.35;103117.13;5073333;28;20043;-87
2023/12/17 05:49:11;;;;;;;6.07;3.23;;;;;;;4.98;60.68;103119.97;5086260;28;20052;-87
2023/12/17 05:52:06;;;;;;;7.57;2.17;;;;;;;4.99;60.22;103123.50;5084982;28;20048;-89
2023/12/17 05:54:56;;;;;;;4.35;2.60;;;;;;;5.11;60.61;103125.28;5080645;28;20111;-88
2023/12/17 05:57:50;;;;;;;4.07;2.67;;;;;;;5.18;59.87;103114.44;5087665;28;20039;-89
2023/12/17 06:00:46;;;;;;;7.22;3.13;;;;;;;4.71;60.26;103115.81;5083534;28;20410;-88
2023/12/17 06:03:35;;;;;;;4.05;2.75;;;;;;;4.80;60.69;103117.22;5076805;28;20048;-88
2023/12/17 06:06:30;;;;;;;5.35;3.08;;;;;;;4.90;59.51;103131.03;5073017;28;20044;-87
2023/12/17 06:09:27;;;;;;;7.53;4.28;;;;;;;5.05;60.32;103133.41;5080140;28;20040;-88
2023/12/17 06:12:22;;;;;;;8.63;4.75;;;;;;;5.01;61.02;103138.44;5072042;28;20048;-88
2023/12/17 06:15:22;;;;;;;7.05;3.30;;;;;;;5.07;60.58;103132.16;5082426;28;20044;-88
2023/12/17 06:18:16;;;;;;;7.53;4.53;;;;;;;5.22;60.42;103134.53;5079631;28;20520;-88
2023/12/17 06:21:09;;;;;;;6.47;3.25;;;;;;;5.10;59.89;103147.91;5081847;28;20055;-87
2023/12/17 06:24:02;;;;;;;8.13;4.65;;;;;;;5.16;60.38;103130.00;5076134;28;20107;-87
2023/12/17 06:26:54;;;;;;;6.32;3.83;;;;;;;5.32;59.89;103120.53;5069713;28;20040;-88
2023/12/17 06:29:46;;;;;;;10.18;5.47;;;;;;;4.59;60.65;103129.16;5070724;28;20059;-89
2023/12/17 06:32:40;;;;;;;8.02;4.65;;;;;;;4.59;62.08;103126.44;5070081;28;20043;-88
2023/12/17 06:35:39;;;;;;;12.57;6.78;;;;;;;4.87;60.63;103139.56;5078976;28;20056;-88
2023/12/17 06:38:33;;;;;;;11.85;7.65;;;;;;;5.03;59.61;103140.88;5065083;28;20044;-88
2023/12/17 06:41:26;;;;;;;6.97;4.95;;;;;;;5.20;60.05;103141.19;5070116;28;20051;-87
2023/12/17 06:44:20;;;;;;;6.93;4.00;;;;;;;4.87;59.08;103141.44;5073684;28;20138;-88
2023/12/17 06:47:15;;;;;;;5.03;2.77;;;;;;;4.15;61.05;103137.25;5083478;28;20051;-88
2023/12/17 06:50:09;;;;;;;3.83;2.60;;;;;;;4.62;60.67;103154.84;5081640;28;20051;-88
2023/12/17 06:52:59;;;;;;;6.00;3.25;;;;;;;4.48;60.69;103167.53;5079814;28;20044;-88
2023/12/17 06:55:51;;;;;;;5.93;3.90;;;;;;;4.49;60.47;103174.59;5079357;28;20432;-88
2023/12/17 06:58:46;;;;;;;6.70;3.90;;;;;;;4.42;60.89;103178.38;5080654;28;20043;-91
2023/12/17 07:01:40;;;;;;;5.57;3.25;;;;;;;4.78;60.36;103173.19;5083853;28;20532;-88
2023/12/17 07:04:32;;;;;;;5.40;2.97;;;;;;;4.94;59.59;103177.25;5079991;28;20416;-88
2023/12/17 07:07:24;;;;;;;5.68;3.70;;;;;;;5.01;59.84;103176.19;5082183;28;20048;-87
2023/12/17 07:10:19;;;;;;;10.27;4.50;;;;;;;4.86;59.76;103181.03;5086538;28;20410;-87
2023/12/17 07:13:14;;;;;;;10.25;3.05;;;;;;;4.87;59.15;103181.88;5085261;28;20263;-87
2023/12/17 07:16:10;;;;;;;5.88;3.85;;;;;;;4.86;59.93;103172.13;5090324;28;20429;-88
2023/12/17 07:19:02;;;;;;;3.00;2.25;;;;;;;4.93;60.49;103179.09;5090434;28;20694;-87
2023/12/17 07:21:56;;;;;;;4.47;3.13;;;;;;;5.07;60.29;103180.69;5090055;28;20051;-88
2023/12/17 07:24:49;;;;;;;5.95;3.22;;;;;;;5.15;60.04;103169.63;5084310;28;20051;-88
2023/12/17 07:27:41;;;;;;;7.43;4.40;;;;;;;4.99;60.25;103177.41;5090808;28;20051;-88
2023/12/17 07:30:33;;;;;;;12.07;7.82;;;;;;;5.02;59.87;103180.53;5089354;28;20056;-87
2023/12/17 07:33:25;;;;;;;13.18;4.22;;;;;;;5.00;59.62;103179.91;5086025;28;20051;-88
2023/12/17 07:36:21;;;;;;;4.88;3.20;;;;;;;5.21;58.77;103176.03;5090127;28;20052;-87
2023/12/17 07:39:15;;;;;;;6.30;3.58;;;;;;;5.02;58.87;103180.53;5088605;28;20051;-88
2023/12/17 07:42:07;;;;;;;15.93;5.30;;;;;;;5.07;60.71;103175.31;5090678;28;20044;-87
2023/12/17 07:45:02;;;;;;;31.47;6.10;;;;;;;5.39;61.93;103183.34;5083457;28;20047;-88
2023/12/17 07:47:54;;;;;;;9.13;4.22;;;;;;;5.52;60.44;103189.47;5087759;28;20401;-85
2023/12/17 07:50:46;;;;;;;13.13;5.18;;;;;;;5.47;59.06;103193.88;5085115;28;20043;-85
2023/12/17 07:53:41;;;;;;;13.73;3.70;;;;;;;5.47;58.91;103196.59;5070518;28;20414;-85
2023/12/17 07:56:34;;;;;;;6.07;3.40;;;;;;;5.52;58.90;103199.44;5088311;28;20044;-85
2023/12/17 07:59:26;;;;;;;7.47;2.78;;;;;;;5.66;58.37;103209.06;5088236;28;20047;-86
2023/12/17 08:02:20;;;;;;;66.07;28.23;;;;;;;5.23;61.13;103211.72;5084250;28;20051;-85
2023/12/17 08:05:12;;;;;;;10.05;5.88;;;;;;;5.50;59.22;103207.75;5081922;28;20044;-85
2023/12/17 08:08:07;;;;;;;4.93;3.15;;;;;;;5.60;59.47;103210.78;5080155;28;20048;-86
2023/12/17 08:11:04;;;;;;;5.47;4.18;;;;;;;5.76;58.76;103217.50;5081080;28;20047;-86
2023/12/17 08:13:59;;;;;;;5.03;3.03;;;;;;;5.50;59.25;103228.50;5076841;28;20036;-86
2023/12/17 08:16:54;;;;;;;18.13;5.32;;;;;;;5.43;59.92;103223.19;5080576;28;20056;-86
2023/12/17 08:19:49;;;;;;;5.38;3.15;;;;;;;5.55;59.69;103215.19;5077855;28;20036;-85
2023/12/17 08:22:41;;;;;;;8.40;3.80;;;;;;;5.77;59.08;103210.22;5083385;28;20058;-84
2023/12/17 08:25:38;;;;;;;5.82;3.53;;;;;;;5.90;58.84;103205.56;5081358;28;20047;-84
2023/12/17 08:28:32;;;;;;;5.35;2.45;;;;;;;5.85;60.35;103204.53;5081581;28;20052;-85
2023/12/17 08:31:27;;;;;;;5.60;2.60;;;;;;;6.04;61.88;103200.03;5085272;28;20048;-84
2023/12/17 08:34:22;;;;;;;7.15;3.15;;;;;;;6.32;62.09;103205.75;5081258;28;20044;-83
2023/12/17 08:37:14;;;;;;;9.25;3.85;;;;;;;6.34;60.92;103190.16;5085544;28;20043;-81
2023/12/17 08:40:09;;;;;;;6.20;2.80;;;;;;;6.58;59.48;103193.78;5084321;28;20536;-82
2023/12/17 08:43:01;;;;;;;7.00;2.58;;;;;;;6.65;58.66;103184.56;5077840;28;20035;-82
2023/12/17 08:45:56;;;;;;;4.95;2.13;;;;;;;6.73;58.07;103194.22;5080105;28;20052;-83
2023/12/17 08:48:48;;;;;;;3.87;2.67;;;;;;;6.80;58.01;103193.09;5076021;28;20047;-82
2023/12/17 08:51:45;;;;;;;3.20;2.25;;;;;;;6.91;58.40;103185.25;5070709;28;20060;-82
2023/12/17 08:54:40;;;;;;;4.03;2.25;;;;;;;6.98;59.62;103191.38;5078896;28;20048;-83
2023/12/17 08:57:32;;;;;;;4.60;2.70;;;;;;;7.11;60.68;103188.47;5070838;28;20410;-81
2023/12/17 09:00:25;;;;;;;7.13;4.10;;;;;;;7.16;61.45;103181.28;5078932;28;20063;-82
2023/12/17 09:03:17;;;;;;;3.85;2.42;;;;;;;7.57;61.23;103183.13;5077184;28;20056;-84
2023/12/17 09:06:07;;;;;;;4.72;3.15;;;;;;;7.32;60.43;103174.38;5073960;28;20042;-79
2023/12/17 09:09:02;;;;;;;7.15;3.00;;;;;;;7.13;60.67;103189.06;5064399;28;20055;-81
2023/12/17 09:11:54;;;;;;;4.72;3.10;;;;;;;7.13;60.75;103180.94;5075414;28;20048;-81
2023/12/17 09:14:48;;;;;;;5.88;3.35;;;;;;;7.12;61.91;103168.47;5075089;28;20051;-81
2023/12/17 09:17:43;;;;;;;6.28;3.63;;;;;;;7.28;62.99;103173.22;5080214;28;20044;-82
2023/12/17 09:20:38;;;;;;;7.13;3.92;;;;;;;7.36;64.96;103177.47;5078039;28;20047;-82
2023/12/17 09:23:30;;;;;;;13.30;5.13;;;;;;;7.38;65.06;103168.03;5080960;28;20043;-82
2023/12/17 09:26:22;;;;;;;8.88;4.57;;;;;;;7.43;65.06;103168.16;5079562;28;20266;-81
2023/12/17 09:29:21;;;;;;;10.93;4.35;;;;;;;7.52;64.78;103157.81;5076450;28;20392;-81
2023/12/17 09:32:15;;;;;;;8.77;4.47;;;;;;;7.64;64.77;103166.78;5079867;28;20406;-81
2023/12/17 09:35:10;;;;;;;7.32;3.83;;;;;;;7.78;63.36;103168.19;5076277;28;20524;-80
2023/12/17 09:38:05;;;;;;;3.87;2.57;;;;;;;7.89;62.55;103159.22;5079142;28;20040;-80
2023/12/17 09:40:57;;;;;;;6.43;4.20;;;;;;;8.03;62.25;103159.78;5078182;28;20048;-81
2023/12/17 09:43:47;;;;;;;8.35;3.67;;;;;;;8.13;62.04;103158.13;5078350;28;20048;-83
2023/12/17 09:46:44;;;;;;;7.65;4.00;;;;;;;8.28;61.91;103157.63;5083159;28;20055;-82
2023/12/17 09:49:39;;;;;;;4.35;3.22;;;;;;;8.58;61.61;103154.75;5077833;28;20547;-82
2023/12/17 09:52:36;;;;;;;7.25;3.92;;;;;;;8.78;61.10;103149.72;5083588;28;20040;-82
2023/12/17 09:55:28;;;;;;;26.55;11.10;;;;;;;8.89;60.57;103134.41;5081134;28;20775;-81
2023/12/17 09:58:20;;;;;;;20.42;10.80;;;;;;;9.14;58.34;103134.88;5082335;28;20032;-81
2023/12/17 10:01:12;;;;;;;11.40;7.85;;;;;;;14.76;42.71;103137.84;5080763;28;20115;-82
2023/12/17 10:04:07;;;;;;;33.63;14.37;;;;;;;19.91;29.63;103130.06;5080098;28;20055;-82
2023/12/17 10:06:59;;;;;;;31.75;13.57;;;;;;;21.48;25.42;103120.38;5072766;28;20041;-81
2023/12/17 10:09:54;;;;;;;11.80;6.88;;;;;;;22.10;24.06;103126.13;5077854;28;20040;-82
2023/12/17 10:12:48;;;;;;;6.72;4.72;;;;;;;23.95;21.97;103127.31;5075395;28;20043;-81
2023/12/17 10:15:40;;;;;;;12.55;7.05;;;;;;;24.30;21.26;103125.69;5079113;28;20047;-81
2023/12/17 10:18:33;;;;;;;5.22;3.75;;;;;;;25.10;20.66;103109.75;5077210;28;20052;-82
2023/12/17 10:21:27;;;;;;;3.42;1.98;;;;;;;24.39;21.26;103106.88;5081966;28;20051;-81
2023/12/17 10:24:35;;;;;;;3.15;2.47;;;;;;;23.54;22.84;103109.69;5076379;28;20047;-82
2023/12/17 10:27:30;;;;;;;6.40;2.72;;;;;;;25.24;22.30;103109.34;5074503;28;20044;-82
2023/12/17 10:30:26;;;;;;;4.20;2.30;;;;;;;24.84;22.46;103098.25;5058754;28;20052;-82
2023/12/17 10:33:28;;;;;;;5.15;1.67;;;;;;;25.09;21.22;103099.00;5076340;28;20051;-82
2023/12/17 10:36:23;;;;;;;12.90;4.78;;;;;;;27.23;19.79;103109.09;5078200;28;20050;-82
2023/12/17 10:39:16;;;;;;;3.85;2.00;;;;;;;27.03;19.92;103113.91;5076843;28;20047;-82
2023/12/17 10:42:13;;;;;;;3.92;1.88;;;;;;;27.44;19.55;103108.66;5087135;28;20430;-82
2023/12/17 10:45:12;;;;;;;6.53;1.98;;;;;;;28.98;18.70;103110.53;5094090;28;20043;-80
2023/12/17 10:48:05;;;;;;;5.93;3.22;;;;;;;28.31;18.72;103107.69;5096009;28;20063;-82
2023/12/17 10:50:59;;;;;;;5.70;1.63;;;;;;;26.47;19.86;103094.00;5083728;28;20043;-80
2023/12/17 10:53:54;;;;;;;4.82;1.83;;;;;;;27.68;19.70;103085.97;5075645;28;20413;-82
2023/12/17 10:56:46;;;;;;;;;;;;;;;29.28;18.47;103092.41;5069486;28;20040;-79
2023/12/17 10:59:38;;;;;;;9.77;4.00;;;;;;;29.86;17.17;103099.31;5069578;28;19916;-82
2023/12/17 11:02:30;;;;;;;;;;;;;;;28.36;18.33;103094.16;5075043;28;20036;-81
2023/12/17 11:05:20;;;;;;;5.53;2.40;;;;;;;28.77;18.48;103071.88;5077525;28;19912;-82
2023/12/17 11:08:14;;;;;;;5.90;2.28;;;;;;;28.83;17.47;103068.34;5073076;28;20036;-82
2023/12/17 11:11:04;;;;;;;;;;;;;;;27.86;17.98;103075.03;5067478;28;20048;-81
2023/12/17 11:13:56;;;;;;;4.00;2.17;;;;;;;28.78;18.10;103076.31;5078673;28;19917;-82
2023/12/17 11:16:51;;;;;;;9.98;4.43;;;;;;;30.31;17.08;103073.56;5080570;28;20051;-82
2023/12/17 11:19:59;;;;;;;10.15;4.90;;;;;;;28.55;18.36;103061.63;5080511;28;20052;-82
2023/12/17 11:22:52;;;;;;;11.85;5.70;;;;;;;28.67;17.61;103064.13;5081079;28;20047;-81
2023/12/17 11:25:46;;;;;;;3.33;1.60;;;;;;;29.08;17.05;103053.78;5079493;28;20043;-82
2023/12/17 11:28:38;;;;;;;2.95;1.35;;;;;;;28.80;17.58;103059.94;5081425;28;20047;-82
2023/12/17 11:31:33;;;;;;;13.95;6.45;;;;;;;28.76;17.63;103065.47;5080933;28;20397;-82
2023/12/17 11:34:28;;;;;;;37.78;14.05;;;;;;;29.83;17.13;103058.81;5074952;28;22210;-83
2023/12/17 11:37:21;;;;;;;128.63;38.97;;;;;;;27.89;18.36;103051.91;5080545;28;20032;-82
2023/12/17 11:40:15;;;;;;;73.85;25.55;;;;;;;29.19;17.52;103040.69;5079184;28;20036;-82
2023/12/17 11:43:15;;;;;;;33.80;15.10;;;;;;;30.38;16.14;103041.88;5082232;28;20089;-82
2023/12/17 11:46:14;;;;;;;33.00;13.27;;;;;;;29.29;16.06;103043.56;5079052;28;20040;-82
2023/12/17 11:49:06;;;;;;;5.55;3.38;;;;;;;29.21;16.31;103033.47;5069554;28;20048;-81
2023/12/17 11:52:08;;;;;;;12.55;6.00;;;;;;;30.28;15.41;103034.22;5074882;28;20048;-81
2023/12/17 11:55:06;;;;;;;8.60;4.38;;;;;;;30.95;14.81;103034.41;5072738;28;20043;-82
2023/12/17 11:58:04;;;;;;;9.75;4.22;;;;;;;31.36;14.35;103027.22;5073468;28;20043;-82
2023/12/17 12:01:22;;;;;;;4.68;2.53;;;;;;;31.00;14.12;103032.00;5078692;28;20055;-82
2023/12/17 12:04:11;;;;;;;6.55;3.25;;;;;;;30.62;15.08;103024.34;5077341;28;20048;-82
2023/12/17 12:07:03;;;;;;;5.47;3.00;;;;;;;31.66;14.39;103028.81;5077698;28;20063;-82
2023/12/17 12:10:09;;;;;;;3.70;2.50;;;;;;;32.29;14.16;103041.13;5071927;28;20048;-82
2023/12/17 12:13:09;;;;;;;5.45;3.92;;;;;;;32.33;14.12;103037.06;5073961;28;20044;-82
2023/12/17 12:16:02;;;;;;;5.93;3.42;;;;;;;32.05;14.32;103023.09;5074946;28;20051;-82
2023/12/17 12:19:09;;;;;;;6.07;3.00;;;;;;;31.88;14.29;103019.13;5066628;28;20043;-82
2023/12/17 12:22:07;;;;;;;3.45;2.65;;;;;;;31.77;14.45;103021.97;5064401;28;20524;-82
2023/12/17 12:25:01;;;;;;;;;;;;;;;32.10;13.88;103015.00;5065219;28;20056;-82
2023/12/17 12:27:54;;;;;;;4.80;3.35;;;;;;;31.35;15.15;103020.00;5063839;28;20293;-82
2023/12/17 12:30:48;;;;;;;7.68;3.33;;;;;;;31.49;14.58;103015.56;5075250;28;20039;-82
2023/12/17 12:33:50;;;;;;;9.48;3.47;;;;;;;30.91;14.93;103014.75;5075450;28;20059;-82
2023/12/17 12:36:52;;;;;;;8.20;5.72;;;;;;;30.56;15.21;103012.69;5064522;28;20059;-82
2023/12/17 12:39:48;;;;;;;6.78;4.25;;;;;;;30.25;15.73;103024.59;5072245;28;20052;-82
2023/12/17 12:42:37;;;;;;;3.90;3.30;;;;;;;31.01;15.04;103007.53;5072744;28;20116;-82
2023/12/17 12:45:32;;;;;;;8.00;4.30;;;;;;;31.12;15.33;103004.75;5073486;28;20059;-83
2023/12/17 12:48:24;;;;;;;;;;;;;;;30.14;15.81;103004.09;5078890;28;20055;-82
2023/12/17 12:51:19;;;;;;;3.55;3.22;;;;;;;31.04;15.02;102989.88;5079581;28;19912;-83
2023/12/17 12:54:09;;;;;;;;;;;;;;;32.45;14.48;103002.00;5081888;28;20048;-83
2023/12/17 12:57:03;;;;;;;5.22;3.30;;;;;;;30.81;15.64;102997.88;5080406;28;20289;-82
2023/12/17 12:59:59;;;;;;;6.78;3.70;;;;;;;31.91;14.45;102994.97;5078432;28;20047;-83
2023/12/17 13:02:51;;;;;;;5.50;3.78;;;;;;;32.48;14.80;102995.53;5084411;28;20056;-83
2023/12/17 13:05:41;;;;;;;;;;;;;;;33.65;13.74;102998.22;5074381;28;20043;-83
2023/12/17 13:08:33;;;;;;;7.20;4.85;;;;;;;29.76;16.55;102986.63;5091982;28;19916;-83
2023/12/17 13:11:25;;;;;;;6.65;4.57;;;;;;;31.53;15.68;102982.59;5086999;28;20048;-83
2023/12/17 13:14:20;;;;;;;6.93;4.90;;;;;;;30.97;16.10;102976.63;5087799;28;20052;-83
2023/12/17 13:17:11;;;;;;;7.60;4.88;;;;;;;31.73;15.53;102984.59;5087180;28;20516;-83
2023/12/17 13:20:04;;;;;;;9.75;4.82;;;;;;;32.79;14.88;102980.47;5085216;28;20043;-83
2023/12/17 13:22:53;;;;;;;7.05;4.45;;;;;;;32.38;14.23;102969.03;5082204;28;20039;-83
2023/12/17 13:25:46;;;;;;;6.13;4.38;;;;;;;32.18;14.50;102982.03;5086011;28;20044;-83
2023/12/17 13:28:36;;;;;;;6.50;4.30;;;;;;;31.57;14.98;102980.63;5087310;28;20048;-82
2023/12/17 13:31:30;;;;;;;10.05;5.03;;;;;;;31.81;15.38;102976.91;5089824;28;20048;-83
2023/12/17 13:34:22;;;;;;;6.72;3.95;;;;;;;32.04;14.98;102970.81;5087199;28;20044;-84
2023/12/17 13:37:16;;;;;;;7.60;4.82;;;;;;;30.75;16.13;102957.31;5082472;28;20059;-83